
Distance (Route):
Temperature : 14.9°C
Humidity : 38.6%
Pressure : 0hPa| Receiver | Frames | First received | Last received |
|---|---|---|---|
| LZ4TU-5 | 101 | 2026-09-05 11:27:02 | 2026-09-05 13:07:35 |
| Receiver | Date | Latitude | Longitude | Direction | Speed | Altitude | Climb | Temperature | Humidity | Pressure | Voltage | Killtimer | Uptime | BKT | XDATA |
|---|---|---|---|---|---|---|---|---|---|---|---|---|---|---|---|
| LZ4TU-5 | 2026-09-05 13:07:35 | 43.28285 | 22.43460 | 158° | 9km/h | 2526m | -12.6m/s | 14.9°C | 38.6% | 0hPa | 0V | 00:00:00 | 00:00:00 | 00:00:00 | |
| LZ4TU-5 | 2026-09-05 13:07:27 | 43.28312 | 22.43439 | 146° | 20km/h | 2622m | -14.3m/s | 13.7°C | 40.3% | 0hPa | 0V | 00:00:00 | 00:00:00 | 00:00:00 | |
| LZ4TU-5 | 2026-09-05 13:07:23 | 43.28328 | 22.43424 | 146° | 22km/h | 2686m | -15.5m/s | 14.6°C | 30.4% | 0hPa | 0V | 00:00:00 | 00:00:00 | 00:00:00 | |
| LZ4TU-5 | 2026-09-05 13:07:18 | 43.28350 | 22.43402 | 146° | 22km/h | 2767m | -14.7m/s | 14.4°C | 29.0% | 0hPa | 0V | 00:00:00 | 00:00:00 | 00:00:00 | |
| LZ4TU-5 | 2026-09-05 13:07:13 | 43.28371 | 22.43380 | 141° | 24km/h | 2843m | -14.9m/s | 13.9°C | 0% | 0hPa | 0V | 00:00:00 | 00:00:00 | 00:00:00 | |
| LZ4TU-5 | 2026-09-05 13:07:04 | 43.28405 | 22.43331 | 127° | 24km/h | 2977m | -15.2m/s | 13.1°C | 33.3% | 0hPa | 0V | 00:00:00 | 00:00:00 | 00:00:00 | |
| LZ4TU-5 | 2026-09-05 13:06:59 | 43.28423 | 22.43298 | 124° | 24km/h | 3044m | -15.2m/s | 12.6°C | 30.5% | 0hPa | 0V | 00:00:00 | 00:00:00 | 00:00:00 | |
| LZ4TU-5 | 2026-09-05 13:06:55 | 43.28440 | 22.43272 | 119° | 24km/h | 3073m | -15.3m/s | 12.2°C | 34.7% | 0hPa | 0V | 00:00:00 | 00:00:00 | 00:00:00 | |
| LZ4TU-5 | 2026-09-05 13:06:50 | 43.28456 | 22.43236 | 124° | 26km/h | 3153m | -15.3m/s | 11.5°C | 42.5% | 0hPa | 0V | 00:00:00 | 00:00:00 | 00:00:00 | |
| LZ4TU-5 | 2026-09-05 12:59:30 | 43.29671 | 22.38667 | 106° | 49km/h | 11071m | -20.6m/s | -44.7°C | 25.9% | 0hPa | 0V | 00:00:00 | 00:00:00 | 00:00:00 | |
| LZ4TU-5 | 2026-09-05 12:59:25 | 43.29686 | 22.38586 | 104° | 49km/h | 11173m | -20.6m/s | -45.6°C | 26.3% | 0hPa | 0V | 00:00:00 | 00:00:00 | 00:00:00 | |
| LZ4TU-5 | 2026-09-05 12:56:08 | 43.29938 | 22.35174 | 81° | 51km/h | 15594m | -26.0m/s | -61.3°C | 0.0% | 0hPa | 0V | 00:00:00 | 00:00:00 | 00:00:00 | |
| LZ4TU-5 | 2026-09-05 12:56:03 | 43.29927 | 22.35087 | 84° | 57km/h | 15728m | -26.7m/s | -61.4°C | 0.0% | 0hPa | 0V | 00:00:00 | 00:00:00 | 00:00:00 | |
| LZ4TU-5 | 2026-09-05 12:55:58 | 43.29922 | 22.35000 | 97° | 55km/h | 15864m | -27.1m/s | -62.0°C | 0.0% | 0hPa | 0V | 00:00:00 | 00:00:00 | 00:00:00 | |
| LZ4TU-5 | 2026-09-05 12:52:32 | 43.29556 | 22.33099 | 76° | 9km/h | 23310m | -51.2m/s | -52.4°C | 0.0% | 0hPa | 0V | 00:00:00 | 00:00:00 | 00:00:00 | |
| LZ4TU-5 | 2026-09-05 12:52:28 | 43.29553 | 22.33089 | 35° | 13km/h | 23510m | -52.2m/s | -52.1°C | 0.0% | 0hPa | 0V | 00:00:00 | 00:00:00 | 00:00:00 | |
| LZ4TU-5 | 2026-09-05 12:52:23 | 43.29541 | 22.33083 | 29° | 11km/h | 23762m | -53.0m/s | -51.5°C | 0.0% | 0hPa | 0V | 00:00:00 | 00:00:00 | 00:00:00 | |
| LZ4TU-5 | 2026-09-05 12:49:54 | 43.29622 | 22.32944 | 278° | 13km/h | 31257m | 6.2m/s | -44.7°C | 0.8% | 0hPa | 0V | 00:00:00 | 00:00:00 | 00:00:00 | |
| LZ4TU-5 | 2026-09-05 12:49:49 | 43.29619 | 22.32947 | 71° | 4km/h | 31222m | 6.7m/s | -44.7°C | 0.8% | 0hPa | 0V | 00:00:00 | 00:00:00 | 00:00:00 | |
| LZ4TU-5 | 2026-09-05 12:46:59 | 43.30108 | 22.32591 | 177° | 15km/h | 30114m | 7.1m/s | -43.9°C | 0.6% | 0hPa | 0V | 00:00:00 | 00:00:00 | 00:00:00 | |
| LZ4TU-5 | 2026-09-05 12:46:54 | 43.30107 | 22.32578 | 88° | 20km/h | 30076m | 5.0m/s | -43.9°C | 0.6% | 0hPa | 0V | 00:00:00 | 00:00:00 | 00:00:00 | |
| LZ4TU-5 | 2026-09-05 12:42:37 | 43.30177 | 22.32711 | 272° | 18km/h | 28386m | 6.8m/s | -45.8°C | 0.0% | 0hPa | 0V | 00:00:00 | 00:00:00 | 00:00:00 | |
| LZ4TU-5 | 2026-09-05 12:42:32 | 43.30176 | 22.32733 | 185° | 9km/h | 28353m | 7.8m/s | -45.9°C | 0.0% | 0hPa | 0V | 00:00:00 | 00:00:00 | 00:00:00 | |
| LZ4TU-5 | 2026-09-05 12:39:58 | 43.30070 | 22.32632 | 15° | 16km/h | 27320m | 7.2m/s | -46.5°C | 0.0% | 0hPa | 0V | 00:00:00 | 00:00:00 | 00:00:00 | |
| LZ4TU-5 | 2026-09-05 12:39:53 | 43.30056 | 22.32608 | 78° | 9km/h | 27288m | 4.7m/s | -46.4°C | 0.0% | 0hPa | 0V | 00:00:00 | 00:00:00 | 00:00:00 | |
| LZ4TU-5 | 2026-09-05 12:37:24 | 43.29551 | 22.32697 | 7° | 9km/h | 26338m | 5.5m/s | -46.9°C | 0.0% | 0hPa | 0V | 00:00:00 | 00:00:00 | 00:00:00 | |
| LZ4TU-5 | 2026-09-05 12:37:18 | 43.29541 | 22.32721 | 303° | 11km/h | 26306m | 6.4m/s | -46.8°C | 0.0% | 0hPa | 0V | 00:00:00 | 00:00:00 | 00:00:00 | |
| LZ4TU-5 | 2026-09-05 12:34:58 | 43.29145 | 22.32477 | 333° | 20km/h | 25429m | 5.8m/s | -49.1°C | 0.0% | 0hPa | 0V | 00:00:00 | 00:00:00 | 00:00:00 | |
| LZ4TU-5 | 2026-09-05 12:34:53 | 43.29128 | 22.32489 | 56° | 5km/h | 25400m | 5.1m/s | -49.0°C | 0.0% | 0hPa | 0V | 00:00:00 | 00:00:00 | 00:00:00 | |
| LZ4TU-5 | 2026-09-05 12:32:39 | 43.29136 | 22.31965 | 75° | 26km/h | 24591m | 5.1m/s | -52.6°C | 0.0% | 0hPa | 0V | 00:00:00 | 00:00:00 | 00:00:00 | |
| LZ4TU-5 | 2026-09-05 12:32:35 | 43.29125 | 22.31940 | 47° | 13km/h | 24563m | 7.5m/s | -52.8°C | 0.0% | 0hPa | 0V | 00:00:00 | 00:00:00 | 00:00:00 | |
| LZ4TU-5 | 2026-09-05 12:29:29 | 43.28661 | 22.31604 | 176° | 7km/h | 23411m | 6.6m/s | -53.1°C | 0.0% | 0hPa | 0V | 00:00:00 | 00:00:00 | 00:00:00 | |
| LZ4TU-5 | 2026-09-05 12:29:24 | 43.28670 | 22.31583 | 159° | 9km/h | 23380m | 6.3m/s | -53.2°C | 0.0% | 0hPa | 0V | 00:00:00 | 00:00:00 | 00:00:00 | |
| LZ4TU-5 | 2026-09-05 12:27:06 | 43.28565 | 22.30945 | 341° | 27km/h | 22541m | 5.5m/s | -53.6°C | 0.0% | 0hPa | 0V | 00:00:00 | 00:00:00 | 00:00:00 | |
| LZ4TU-5 | 2026-09-05 12:27:01 | 43.28519 | 22.30945 | 6° | 46km/h | 22512m | 5.1m/s | -53.8°C | 0.0% | 0hPa | 0V | 00:00:00 | 00:00:00 | 00:00:00 | |
| LZ4TU-5 | 2026-09-05 12:25:10 | 43.28292 | 22.30905 | 40° | 9km/h | 21871m | 5.9m/s | -53.2°C | 0.0% | 0hPa | 0V | 00:00:00 | 00:00:00 | 00:00:00 | |
| LZ4TU-5 | 2026-09-05 12:25:05 | 43.28284 | 22.30878 | 72° | 31km/h | 21841m | 6.2m/s | -53.7°C | 0.0% | 0hPa | 0V | 00:00:00 | 00:00:00 | 00:00:00 | |
| LZ4TU-5 | 2026-09-05 12:23:07 | 43.27917 | 22.30587 | 6° | 18km/h | 21155m | 5.3m/s | -55.4°C | 0.0% | 0hPa | 0V | 00:00:00 | 00:00:00 | 00:00:00 | |
| LZ4TU-5 | 2026-09-05 12:23:03 | 43.27907 | 22.30574 | 66° | 20km/h | 21131m | 6.2m/s | -55.4°C | 0.0% | 0hPa | 0V | 00:00:00 | 00:00:00 | 00:00:00 | |
| LZ4TU-5 | 2026-09-05 12:20:55 | 43.27590 | 22.29888 | 61° | 35km/h | 20410m | 5.6m/s | -57.2°C | 0.0% | 0hPa | 0V | 00:00:00 | 00:00:00 | 00:00:00 | |
| LZ4TU-5 | 2026-09-05 12:20:50 | 43.27565 | 22.29844 | 75° | 26km/h | 20381m | 5.7m/s | -57.3°C | 0.0% | 0hPa | 0V | 00:00:00 | 00:00:00 | 00:00:00 | |
| LZ4TU-5 | 2026-09-05 12:18:43 | 43.27210 | 22.29007 | 92° | 24km/h | 19645m | 5.2m/s | -57.7°C | 0.0% | 0hPa | 0V | 00:00:00 | 00:00:00 | 00:00:00 | |
| LZ4TU-5 | 2026-09-05 12:18:38 | 43.27210 | 22.28960 | 101° | 37km/h | 19620m | 4.8m/s | -57.6°C | 0.0% | 0hPa | 0V | 00:00:00 | 00:00:00 | 00:00:00 | |
| LZ4TU-5 | 2026-09-05 12:16:28 | 43.27074 | 22.27697 | 80° | 38km/h | 18900m | 5.4m/s | -56.6°C | 0.0% | 0hPa | 0V | 00:00:00 | 00:00:00 | 00:00:00 | |
| LZ4TU-5 | 2026-09-05 12:16:22 | 43.27063 | 22.27663 | 66° | 24km/h | 18875m | 6.1m/s | -56.5°C | 0.0% | 0hPa | 0V | 00:00:00 | 00:00:00 | 00:00:00 | |
| LZ4TU-5 | 2026-09-05 12:13:48 | 43.26438 | 22.26169 | 29° | 47km/h | 18016m | 6.4m/s | -58.2°C | 0.4% | 0hPa | 0V | 00:00:00 | 00:00:00 | 00:00:00 | |
| LZ4TU-5 | 2026-09-05 12:13:44 | 43.26405 | 22.26145 | 41° | 35km/h | 17992m | 5.7m/s | -58.1°C | 0.4% | 0hPa | 0V | 00:00:00 | 00:00:00 | 00:00:00 | |
| LZ4TU-5 | 2026-09-05 12:11:11 | 43.26321 | 22.24431 | 105° | 37km/h | 17157m | 5.4m/s | -60.9°C | 1.4% | 0hPa | 0V | 00:00:00 | 00:00:00 | 00:00:00 | |
| LZ4TU-5 | 2026-09-05 12:11:06 | 43.26319 | 22.24378 | 59° | 38km/h | 17130m | 4.8m/s | -60.8°C | 1.5% | 0hPa | 0V | 00:00:00 | 00:00:00 | 00:00:00 | |
| LZ4TU-5 | 2026-09-05 12:09:20 | 43.26189 | 22.22994 | 101° | 51km/h | 16592m | 4.2m/s | -61.0°C | 2.4% | 0hPa | 0V | 00:00:00 | 00:00:00 | 00:00:00 | |
| LZ4TU-5 | 2026-09-05 12:09:16 | 43.26180 | 22.22893 | 81° | 58km/h | 16565m | 5.1m/s | -60.9°C | 2.6% | 0hPa | 0V | 00:00:00 | 00:00:00 | 00:00:00 | |
| LZ4TU-5 | 2026-09-05 12:06:57 | 43.25915 | 22.20977 | 89° | 46km/h | 15839m | 6.2m/s | -61.9°C | 4.6% | 0hPa | 0V | 00:00:00 | 00:00:00 | 00:00:00 | |
| LZ4TU-5 | 2026-09-05 12:06:53 | 43.25917 | 22.20904 | 96° | 53km/h | 15816m | 6.2m/s | -61.9°C | 4.6% | 0hPa | 0V | 00:00:00 | 00:00:00 | 00:00:00 | |
| LZ4TU-5 | 2026-09-05 12:04:39 | 43.25916 | 22.18888 | 79° | 37km/h | 15068m | 7.0m/s | -60.3°C | 9.0% | 0hPa | 0V | 00:00:00 | 00:00:00 | 00:00:00 | |
| LZ4TU-5 | 2026-09-05 12:04:34 | 43.25918 | 22.18832 | 116° | 42km/h | 15035m | 5.6m/s | -60.3°C | 9.3% | 0hPa | 0V | 00:00:00 | 00:00:00 | 00:00:00 | |
| LZ4TU-5 | 2026-09-05 12:02:08 | 43.26963 | 22.16429 | 117° | 75km/h | 14268m | 5.4m/s | -62.1°C | 21.4% | 0hPa | 0V | 00:00:00 | 00:00:00 | 00:00:00 | |
| LZ4TU-5 | 2026-09-05 12:00:01 | 43.27212 | 22.14129 | 98° | 58km/h | 13596m | 3.7m/s | -64.0°C | 25.2% | 0hPa | 0V | 00:00:00 | 00:00:00 | 00:00:00 | |
| LZ4TU-5 | 2026-09-05 11:59:57 | 43.27217 | 22.14054 | 96° | 47km/h | 13577m | 4.8m/s | -63.9°C | 25.0% | 0hPa | 0V | 00:00:00 | 00:00:00 | 00:00:00 | |
| LZ4TU-5 | 2026-09-05 11:56:03 | 43.27142 | 22.10789 | 80° | 49km/h | 12360m | 6.3m/s | -55.3°C | 20.1% | 0hPa | 0V | 00:00:00 | 00:00:00 | 00:00:00 | |
| LZ4TU-5 | 2026-09-05 11:55:59 | 43.27130 | 22.10733 | 65° | 37km/h | 12335m | 5.3m/s | -55.2°C | 20.3% | 0hPa | 0V | 00:00:00 | 00:00:00 | 00:00:00 | |
| LZ4TU-5 | 2026-09-05 11:55:54 | 43.27115 | 22.10668 | 84° | 47km/h | 12309m | 4.2m/s | -55.2°C | 20.6% | 0hPa | 0V | 00:00:00 | 00:00:00 | 00:00:00 | |
| LZ4TU-5 | 2026-09-05 11:55:43 | 43.27087 | 22.10508 | 75° | 47km/h | 12257m | 5.2m/s | -55.1°C | 21.5% | 0hPa | 0V | 00:00:00 | 00:00:00 | 00:00:00 | |
| LZ4TU-5 | 2026-09-05 11:53:27 | 43.26902 | 22.08397 | 84° | 58km/h | 11662m | 3.8m/s | -51.2°C | 21.0% | 0hPa | 0V | 00:00:00 | 00:00:00 | 00:00:00 | |
| LZ4TU-5 | 2026-09-05 11:53:22 | 43.26899 | 22.08313 | 91° | 40km/h | 11639m | 4.2m/s | -51.0°C | 21.0% | 0hPa | 0V | 00:00:00 | 00:00:00 | 00:00:00 | |
| LZ4TU-5 | 2026-09-05 11:51:25 | 43.26887 | 22.06409 | 83° | 49km/h | 11072m | 4.7m/s | -46.5°C | 18.8% | 0hPa | 0V | 00:00:00 | 00:00:00 | 00:00:00 | |
| LZ4TU-5 | 2026-09-05 11:51:20 | 43.26890 | 22.06312 | 92° | 51km/h | 11049m | 3.9m/s | -46.3°C | 18.7% | 0hPa | 0V | 00:00:00 | 00:00:00 | 00:00:00 | |
| LZ4TU-5 | 2026-09-05 11:51:15 | 43.26895 | 22.06237 | 96° | 40km/h | 11024m | 3.4m/s | -46.1°C | 18.3% | 0hPa | 0V | 00:00:00 | 00:00:00 | 00:00:00 | |
| LZ4TU-5 | 2026-09-05 11:51:11 | 43.26897 | 22.06162 | 94° | 62km/h | 11006m | 4.8m/s | -45.9°C | 18.1% | 0hPa | 0V | 00:00:00 | 00:00:00 | 00:00:00 | |
| LZ4TU-5 | 2026-09-05 11:51:02 | 43.26895 | 22.06020 | 99° | 46km/h | 10965m | 5.7m/s | -45.6°C | 17.7% | 0hPa | 0V | 00:00:00 | 00:00:00 | 00:00:00 | |
| LZ4TU-5 | 2026-09-05 11:50:48 | 43.26908 | 22.05775 | 95° | 47km/h | 10897m | 4.4m/s | -45.0°C | 17.3% | 0hPa | 0V | 00:00:00 | 00:00:00 | 00:00:00 | |
| LZ4TU-5 | 2026-09-05 11:50:41 | 43.26910 | 22.05662 | 92° | 49km/h | 10863m | 5.7m/s | -44.7°C | 17.0% | 0hPa | 0V | 00:00:00 | 00:00:00 | 00:00:00 | |
| LZ4TU-5 | 2026-09-05 11:50:36 | 43.26917 | 22.05569 | 97° | 55km/h | 10840m | 4.6m/s | -44.5°C | 16.7% | 0hPa | 0V | 00:00:00 | 00:00:00 | 00:00:00 | |
| LZ4TU-5 | 2026-09-05 11:48:44 | 43.27201 | 22.03928 | 111° | 55km/h | 10266m | 5.0m/s | -39.7°C | 13.7% | 0hPa | 0V | 00:00:00 | 00:00:00 | 00:00:00 | |
| LZ4TU-5 | 2026-09-05 11:48:39 | 43.27225 | 22.03840 | 110° | 42km/h | 10240m | 6.7m/s | -39.5°C | 13.6% | 0hPa | 0V | 00:00:00 | 00:00:00 | 00:00:00 | |
| LZ4TU-5 | 2026-09-05 11:46:32 | 43.27643 | 22.02141 | 98° | 38km/h | 9608m | 4.3m/s | -34.2°C | 11.0% | 0hPa | 0V | 00:00:00 | 00:00:00 | 00:00:00 | |
| LZ4TU-5 | 2026-09-05 11:46:28 | 43.27655 | 22.02089 | 117° | 42km/h | 9590m | 4.9m/s | -34.1°C | 10.9% | 0hPa | 0V | 00:00:00 | 00:00:00 | 00:00:00 | |
| LZ4TU-5 | 2026-09-05 11:44:43 | 43.27975 | 22.00625 | 138° | 44km/h | 9059m | 4.5m/s | -30.4°C | 9.4% | 0hPa | 0V | 00:00:00 | 00:00:00 | 00:00:00 | |
| LZ4TU-5 | 2026-09-05 11:44:39 | 43.28003 | 22.00569 | 108° | 53km/h | 9039m | 4.2m/s | -30.2°C | 9.3% | 0hPa | 0V | 00:00:00 | 00:00:00 | 00:00:00 | |
| LZ4TU-5 | 2026-09-05 11:42:50 | 43.28584 | 21.99113 | 118° | 46km/h | 8521m | 3.6m/s | -27.3°C | 13.5% | 0hPa | 0V | 00:00:00 | 00:00:00 | 00:00:00 | |
| LZ4TU-5 | 2026-09-05 11:42:46 | 43.28596 | 21.99061 | 104° | 35km/h | 8503m | 4.9m/s | -27.2°C | 13.8% | 0hPa | 0V | 00:00:00 | 00:00:00 | 00:00:00 | |
| LZ4TU-5 | 2026-09-05 11:41:08 | 43.28995 | 21.97850 | 125° | 49km/h | 8054m | 4.3m/s | -23.7°C | 15.5% | 0hPa | 0V | 00:00:00 | 00:00:00 | 00:00:00 | |
| LZ4TU-5 | 2026-09-05 11:41:03 | 43.29023 | 21.97786 | 102° | 38km/h | 8033m | 3.5m/s | -23.5°C | 15.6% | 0hPa | 0V | 00:00:00 | 00:00:00 | 00:00:00 | |
| LZ4TU-5 | 2026-09-05 11:39:23 | 43.29379 | 21.96548 | 137° | 44km/h | 7557m | 6.0m/s | -19.3°C | 13.2% | 0hPa | 0V | 00:00:00 | 00:00:00 | 00:00:00 | |
| LZ4TU-5 | 2026-09-05 11:39:18 | 43.29415 | 21.96509 | 107° | 31km/h | 7538m | 6.2m/s | -19.1°C | 0% | 0hPa | 0V | 00:00:00 | 00:00:00 | 00:00:00 | |
| LZ4TU-5 | 2026-09-05 11:37:49 | 43.29870 | 21.95542 | 130° | 31km/h | 7101m | 4.9m/s | -15.9°C | 13.6% | 0hPa | 0V | 00:00:00 | 00:00:00 | 00:00:00 | |
| LZ4TU-5 | 2026-09-05 11:37:44 | 43.29877 | 21.95503 | 95° | 31km/h | 7081m | 5.4m/s | -15.9°C | 13.4% | 0hPa | 0V | 00:00:00 | 00:00:00 | 00:00:00 | |
| LZ4TU-5 | 2026-09-05 11:36:13 | 43.30486 | 21.94765 | 125° | 53km/h | 6563m | 5.8m/s | -12.6°C | 14.8% | 0hPa | 0V | 00:00:00 | 00:00:00 | 00:00:00 | |
| LZ4TU-5 | 2026-09-05 11:36:08 | 43.30518 | 21.94716 | 140° | 20km/h | 6535m | 5.8m/s | -12.4°C | 14.7% | 0hPa | 0V | 00:00:00 | 00:00:00 | 00:00:00 | |
| LZ4TU-5 | 2026-09-05 11:34:45 | 43.30988 | 21.94086 | 127° | 35km/h | 6117m | 4.5m/s | -10.1°C | 17.2% | 0hPa | 0V | 00:00:00 | 00:00:00 | 00:00:00 | |
| LZ4TU-5 | 2026-09-05 11:34:40 | 43.31020 | 21.94040 | 132° | 38km/h | 6088m | 5.7m/s | -9.9°C | 17.6% | 0hPa | 0V | 00:00:00 | 00:00:00 | 00:00:00 | |
| LZ4TU-5 | 2026-09-05 11:33:24 | 43.31273 | 21.93706 | 149° | 35km/h | 5717m | 2.8m/s | -8.5°C | 34.8% | 0hPa | 0V | 00:00:00 | 00:00:00 | 00:00:00 | |
| LZ4TU-5 | 2026-09-05 11:33:19 | 43.31279 | 21.93662 | 27° | 13km/h | 5692m | 6.1m/s | -8.4°C | 34.5% | 0hPa | 0V | 00:00:00 | 00:00:00 | 00:00:00 | |
| LZ4TU-5 | 2026-09-05 11:32:08 | 43.31405 | 21.93419 | 329° | 7km/h | 5316m | 5.0m/s | -5.4°C | 30.9% | 0hPa | 0V | 00:00:00 | 00:00:00 | 00:00:00 | |
| LZ4TU-5 | 2026-09-05 11:32:03 | 43.31399 | 21.93431 | 242° | 13km/h | 5294m | 6.8m/s | -5.2°C | 30.8% | 0hPa | 0V | 00:00:00 | 00:00:00 | 00:00:00 | |
| LZ4TU-5 | 2026-09-05 11:30:53 | 43.31488 | 21.93134 | 107° | 24km/h | 4953m | 5.3m/s | -2.5°C | 27.4% | 0hPa | 0V | 00:00:00 | 00:00:00 | 00:00:00 | |
| LZ4TU-5 | 2026-09-05 11:30:49 | 43.31486 | 21.93117 | 82° | 13km/h | 4924m | 6.3m/s | -2.3°C | 0% | 0hPa | 0V | 00:00:00 | 00:00:00 | 00:00:00 | |
| LZ4TU-5 | 2026-09-05 11:29:37 | 43.31578 | 21.92836 | 212° | 13km/h | 4571m | 5.1m/s | -0.2°C | 36.6% | 0hPa | 0V | 00:00:00 | 00:00:00 | 00:00:00 | |
| LZ4TU-5 | 2026-09-05 11:28:22 | 43.31608 | 21.92806 | 187° | 22km/h | 4194m | 4.3m/s | 2.9°C | 37.4% | 0hPa | 0V | 00:00:00 | 00:00:00 | 00:00:00 | |
| LZ4TU-5 | 2026-09-05 11:28:17 | 43.31614 | 21.92783 | 33° | 18km/h | 4172m | 4.9m/s | 3.2°C | 37.0% | 0hPa | 0V | 00:00:00 | 00:00:00 | 00:00:00 | |
| LZ4TU-5 | 2026-09-05 11:27:07 | 43.31607 | 21.92512 | 82° | 33km/h | 3778m | 4.5m/s | 5.7°C | 40.4% | 0hPa | 0V | 00:00:00 | 00:00:00 | 00:00:00 | |
| LZ4TU-5 | 2026-09-05 11:27:02 | 43.31606 | 21.92467 | 117° | 11km/h | 3754m | 5.2m/s | 5.9°C | 40.0% | 0hPa | 0V | 00:00:00 | 00:00:00 | 00:00:00 |